首页
METAR-TAF:

METAR-TAF

机场 :

阿维亚诺空军基地

Aviano, 意大利

纬度: 46-02N, 经度: 012-36E, 海拔: 128米

当前天气观测

该预报发布于9小时和2分钟前的20:55 UTC
风速2节,风向北转东北
温度 5°C
湿度 93%
气压 1030 hPa
能见度10公里或以上
少量云层高于8000英尺

METAR: LIPA 222055Z 03002KT 9999 FEW080 05/04 Q1030 RMK FEW VIS MIN 9999 WIND THR05 /////KT WIND THR23 /////KT A3044 BLU

时间: 06:57 (05:57 UTC)

预报

该预报发布于9小时和57分钟前的20:00 UTC
预报有效从22日的 21点(UTC)到 23日的 06点(UTC)
风速3节,风向
能见度10公里或以上
1500米以下无云,无积雨云
成为
从 22日的 21点(UTC)到 22日的 24点(UTC)
能见度10公里或以上
散云层高于7000英尺

TAF: LIPA 222000Z 2221/2306 19003KT CAVOK BECMG 2221/2224 9999 SCT070

超过4000个机场的气象观测和天气预报(METAR&TAF报告)。

可查询的气象台以黄色和红色小点在地图上表示。

将鼠标移到小点上方,可查看气象台名称。

然后点击查看天气观测和预报。

如需切换地图:点击带黑十字的绿色按钮放大地图;点击带横线的绿色按钮缩小地图;或者点击绿色箭头查看邻近地区的地图。


METAR-TAF: